sensor_id;sensor_type;location;lat;lon;timestamp;temperature;humidity
31979;DHT22;18502;43.574;1.276;2024-02-21T00:01:40;6.00;99.90
31979;DHT22;18502;43.574;1.276;2024-02-21T00:04:06;6.00;99.90
31979;DHT22;18502;43.574;1.276;2024-02-21T00:06:32;6.00;99.90
31979;DHT22;18502;43.574;1.276;2024-02-21T00:08:58;6.00;99.90
31979;DHT22;18502;43.574;1.276;2024-02-21T00:11:23;6.00;99.90
31979;DHT22;18502;43.574;1.276;2024-02-21T00:13:49;6.00;99.90
31979;DHT22;18502;43.574;1.276;2024-02-21T00:16:16;6.00;99.90
31979;DHT22;18502;43.574;1.276;2024-02-21T00:18:43;5.90;99.90
31979;DHT22;18502;43.574;1.276;2024-02-21T00:21:08;5.90;99.90
31979;DHT22;18502;43.574;1.276;2024-02-21T00:23:34;5.80;99.90
31979;DHT22;18502;43.574;1.276;2024-02-21T00:26:00;5.80;99.90
31979;DHT22;18502;43.574;1.276;2024-02-21T00:28:25;5.80;99.90
31979;DHT22;18502;43.574;1.276;2024-02-21T00:30:51;5.80;99.90
31979;DHT22;18502;43.574;1.276;2024-02-21T00:33:18;5.90;99.90
31979;DHT22;18502;43.574;1.276;2024-02-21T00:35:44;5.90;99.90
31979;DHT22;18502;43.574;1.276;2024-02-21T00:38:10;5.90;99.90
31979;DHT22;18502;43.574;1.276;2024-02-21T00:40:35;5.90;99.90
31979;DHT22;18502;43.574;1.276;2024-02-21T00:43:01;5.90;99.90
31979;DHT22;18502;43.574;1.276;2024-02-21T00:45:27;5.90;99.90
31979;DHT22;18502;43.574;1.276;2024-02-21T00:47:52;5.90;99.90
31979;DHT22;18502;43.574;1.276;2024-02-21T00:50:18;5.90;99.90
31979;DHT22;18502;43.574;1.276;2024-02-21T00:52:44;6.00;99.90
31979;DHT22;18502;43.574;1.276;2024-02-21T00:55:10;6.00;99.90
31979;DHT22;18502;43.574;1.276;2024-02-21T00:57:36;6.00;99.90
31979;DHT22;18502;43.574;1.276;2024-02-21T01:00:05;6.00;99.90
31979;DHT22;18502;43.574;1.276;2024-02-21T01:02:31;6.00;99.90
31979;DHT22;18502;43.574;1.276;2024-02-21T01:05:01;6.00;99.90
31979;DHT22;18502;43.574;1.276;2024-02-21T01:07:27;6.10;99.90
31979;DHT22;18502;43.574;1.276;2024-02-21T01:09:53;6.10;99.90
31979;DHT22;18502;43.574;1.276;2024-02-21T01:12:18;6.10;99.90
31979;DHT22;18502;43.574;1.276;2024-02-21T01:14:44;6.00;99.90
31979;DHT22;18502;43.574;1.276;2024-02-21T01:17:12;6.00;99.90
31979;DHT22;18502;43.574;1.276;2024-02-21T01:19:37;6.00;99.90
31979;DHT22;18502;43.574;1.276;2024-02-21T01:22:04;5.80;99.90
31979;DHT22;18502;43.574;1.276;2024-02-21T01:24:30;5.70;99.90
31979;DHT22;18502;43.574;1.276;2024-02-21T01:26:55;5.80;99.90
31979;DHT22;18502;43.574;1.276;2024-02-21T01:29:21;5.70;99.90
31979;DHT22;18502;43.574;1.276;2024-02-21T01:31:47;5.90;99.90
31979;DHT22;18502;43.574;1.276;2024-02-21T01:34:13;5.80;99.90
31979;DHT22;18502;43.574;1.276;2024-02-21T01:36:38;5.90;99.90
31979;DHT22;18502;43.574;1.276;2024-02-21T01:39:04;5.80;99.90
31979;DHT22;18502;43.574;1.276;2024-02-21T01:41:30;5.60;99.90
31979;DHT22;18502;43.574;1.276;2024-02-21T01:43:57;5.50;99.90
31979;DHT22;18502;43.574;1.276;2024-02-21T01:46:24;5.40;99.90
31979;DHT22;18502;43.574;1.276;2024-02-21T01:48:54;5.40;99.90
31979;DHT22;18502;43.574;1.276;2024-02-21T01:51:19;5.40;99.90
31979;DHT22;18502;43.574;1.276;2024-02-21T01:53:46;5.40;99.90
31979;DHT22;18502;43.574;1.276;2024-02-21T01:56:12;5.40;99.90
31979;DHT22;18502;43.574;1.276;2024-02-21T01:58:40;5.40;99.90
31979;DHT22;18502;43.574;1.276;2024-02-21T02:01:07;5.20;99.90
31979;DHT22;18502;43.574;1.276;2024-02-21T02:03:32;5.10;99.90
31979;DHT22;18502;43.574;1.276;2024-02-21T02:05:58;5.10;99.90
31979;DHT22;18502;43.574;1.276;2024-02-21T02:08:24;5.10;99.90
31979;DHT22;18502;43.574;1.276;2024-02-21T02:10:50;5.00;99.90
31979;DHT22;18502;43.574;1.276;2024-02-21T02:13:16;5.00;99.90
31979;DHT22;18502;43.574;1.276;2024-02-21T02:15:45;4.90;99.90
31979;DHT22;18502;43.574;1.276;2024-02-21T02:18:12;5.00;99.90
31979;DHT22;18502;43.574;1.276;2024-02-21T02:20:39;5.00;99.90
31979;DHT22;18502;43.574;1.276;2024-02-21T02:23:10;4.80;99.90
31979;DHT22;18502;43.574;1.276;2024-02-21T02:25:37;4.80;99.90
31979;DHT22;18502;43.574;1.276;2024-02-21T02:28:04;4.80;99.90
31979;DHT22;18502;43.574;1.276;2024-02-21T02:30:35;4.80;99.90
31979;DHT22;18502;43.574;1.276;2024-02-21T02:33:05;4.80;99.90
31979;DHT22;18502;43.574;1.276;2024-02-21T02:35:30;4.80;99.90
31979;DHT22;18502;43.574;1.276;2024-02-21T02:37:56;4.80;99.90
31979;DHT22;18502;43.574;1.276;2024-02-21T02:40:22;4.80;99.90
31979;DHT22;18502;43.574;1.276;2024-02-21T02:42:48;4.70;99.90
31979;DHT22;18502;43.574;1.276;2024-02-21T02:45:18;4.70;99.90
31979;DHT22;18502;43.574;1.276;2024-02-21T02:47:47;4.60;99.90
31979;DHT22;18502;43.574;1.276;2024-02-21T02:50:13;4.60;99.90
31979;DHT22;18502;43.574;1.276;2024-02-21T02:52:39;4.50;99.90
31979;DHT22;18502;43.574;1.276;2024-02-21T02:55:05;4.40;99.90
31979;DHT22;18502;43.574;1.276;2024-02-21T02:57:31;4.40;99.90
31979;DHT22;18502;43.574;1.276;2024-02-21T02:59:57;4.20;99.90
31979;DHT22;18502;43.574;1.276;2024-02-21T03:02:23;4.20;99.90
31979;DHT22;18502;43.574;1.276;2024-02-21T03:04:49;4.10;99.90
31979;DHT22;18502;43.574;1.276;2024-02-21T03:07:15;4.10;99.90
31979;DHT22;18502;43.574;1.276;2024-02-21T03:09:41;4.00;99.90
31979;DHT22;18502;43.574;1.276;2024-02-21T03:12:08;3.90;99.90
31979;DHT22;18502;43.574;1.276;2024-02-21T03:14:34;3.90;99.90
31979;DHT22;18502;43.574;1.276;2024-02-21T03:17:00;3.80;99.90
31979;DHT22;18502;43.574;1.276;2024-02-21T03:19:26;3.80;99.90
31979;DHT22;18502;43.574;1.276;2024-02-21T03:21:52;3.80;99.90
31979;DHT22;18502;43.574;1.276;2024-02-21T03:24:21;3.70;99.90
31979;DHT22;18502;43.574;1.276;2024-02-21T03:26:47;3.60;99.90
31979;DHT22;18502;43.574;1.276;2024-02-21T03:29:17;3.60;99.90
31979;DHT22;18502;43.574;1.276;2024-02-21T03:31:43;3.60;99.90
31979;DHT22;18502;43.574;1.276;2024-02-21T03:34:11;3.50;99.90
31979;DHT22;18502;43.574;1.276;2024-02-21T03:36:37;3.50;99.90
31979;DHT22;18502;43.574;1.276;2024-02-21T03:39:03;3.50;99.90
31979;DHT22;18502;43.574;1.276;2024-02-21T03:41:29;3.50;99.90
31979;DHT22;18502;43.574;1.276;2024-02-21T03:43:54;3.50;99.90
31979;DHT22;18502;43.574;1.276;2024-02-21T03:46:20;3.50;99.90
31979;DHT22;18502;43.574;1.276;2024-02-21T03:48:45;3.40;99.90
31979;DHT22;18502;43.574;1.276;2024-02-21T03:51:11;3.40;99.90
31979;DHT22;18502;43.574;1.276;2024-02-21T03:53:37;3.40;99.90
31979;DHT22;18502;43.574;1.276;2024-02-21T03:56:03;3.30;99.90
31979;DHT22;18502;43.574;1.276;2024-02-21T03:58:30;3.20;99.90
31979;DHT22;18502;43.574;1.276;2024-02-21T04:00:56;3.10;99.90
31979;DHT22;18502;43.574;1.276;2024-02-21T04:03:22;3.10;99.90
31979;DHT22;18502;43.574;1.276;2024-02-21T04:05:47;3.10;99.90
31979;DHT22;18502;43.574;1.276;2024-02-21T04:08:13;3.10;99.90
31979;DHT22;18502;43.574;1.276;2024-02-21T04:10:39;3.10;99.90
31979;DHT22;18502;43.574;1.276;2024-02-21T04:13:06;3.00;99.90
31979;DHT22;18502;43.574;1.276;2024-02-21T04:15:32;3.00;99.90
31979;DHT22;18502;43.574;1.276;2024-02-21T04:17:58;3.00;99.90
31979;DHT22;18502;43.574;1.276;2024-02-21T04:20:23;3.00;99.90
31979;DHT22;18502;43.574;1.276;2024-02-21T04:22:49;2.90;99.90
31979;DHT22;18502;43.574;1.276;2024-02-21T04:25:15;3.00;99.90
31979;DHT22;18502;43.574;1.276;2024-02-21T04:27:40;3.00;99.90
31979;DHT22;18502;43.574;1.276;2024-02-21T04:30:07;3.10;99.90
31979;DHT22;18502;43.574;1.276;2024-02-21T04:32:33;3.00;99.90
31979;DHT22;18502;43.574;1.276;2024-02-21T04:34:59;3.10;99.90
31979;DHT22;18502;43.574;1.276;2024-02-21T04:37:24;3.00;99.90
31979;DHT22;18502;43.574;1.276;2024-02-21T04:39:50;3.10;99.90
31979;DHT22;18502;43.574;1.276;2024-02-21T04:42:16;3.10;99.90
31979;DHT22;18502;43.574;1.276;2024-02-21T04:44:42;3.10;99.90
31979;DHT22;18502;43.574;1.276;2024-02-21T04:47:08;3.30;99.90
31979;DHT22;18502;43.574;1.276;2024-02-21T04:49:34;3.20;99.90
31979;DHT22;18502;43.574;1.276;2024-02-21T04:52:00;3.20;99.90
31979;DHT22;18502;43.574;1.276;2024-02-21T04:54:25;3.10;99.90
31979;DHT22;18502;43.574;1.276;2024-02-21T04:56:51;3.10;99.90
31979;DHT22;18502;43.574;1.276;2024-02-21T04:59:17;3.10;99.90
31979;DHT22;18502;43.574;1.276;2024-02-21T05:01:43;3.10;99.90
31979;DHT22;18502;43.574;1.276;2024-02-21T05:04:08;3.10;99.90
31979;DHT22;18502;43.574;1.276;2024-02-21T05:06:38;3.10;99.90
31979;DHT22;18502;43.574;1.276;2024-02-21T05:09:04;3.00;99.90
31979;DHT22;18502;43.574;1.276;2024-02-21T05:11:30;2.90;99.90
31979;DHT22;18502;43.574;1.276;2024-02-21T05:13:56;2.90;99.90
31979;DHT22;18502;43.574;1.276;2024-02-21T05:16:22;2.80;99.90
31979;DHT22;18502;43.574;1.276;2024-02-21T05:18:47;2.80;99.90
31979;DHT22;18502;43.574;1.276;2024-02-21T05:21:13;2.80;99.90
31979;DHT22;18502;43.574;1.276;2024-02-21T05:23:39;2.80;99.90
31979;DHT22;18502;43.574;1.276;2024-02-21T05:26:05;2.90;99.90
31979;DHT22;18502;43.574;1.276;2024-02-21T05:28:31;2.90;99.90
31979;DHT22;18502;43.574;1.276;2024-02-21T05:30:57;3.10;99.90
31979;DHT22;18502;43.574;1.276;2024-02-21T05:33:23;3.00;99.90
31979;DHT22;18502;43.574;1.276;2024-02-21T05:35:48;3.00;99.90
31979;DHT22;18502;43.574;1.276;2024-02-21T05:38:14;2.90;99.90
31979;DHT22;18502;43.574;1.276;2024-02-21T05:40:40;3.00;99.90
31979;DHT22;18502;43.574;1.276;2024-02-21T05:43:08;3.00;99.90
31979;DHT22;18502;43.574;1.276;2024-02-21T05:45:34;3.00;99.90
31979;DHT22;18502;43.574;1.276;2024-02-21T05:47:59;3.00;99.90
31979;DHT22;18502;43.574;1.276;2024-02-21T05:50:25;3.00;99.90
31979;DHT22;18502;43.574;1.276;2024-02-21T05:52:55;2.90;99.90
31979;DHT22;18502;43.574;1.276;2024-02-21T05:55:21;2.90;99.90
31979;DHT22;18502;43.574;1.276;2024-02-21T05:57:47;2.80;99.90
31979;DHT22;18502;43.574;1.276;2024-02-21T06:00:13;2.80;99.90
31979;DHT22;18502;43.574;1.276;2024-02-21T06:02:39;2.60;99.90
31979;DHT22;18502;43.574;1.276;2024-02-21T06:05:06;2.70;99.90
31979;DHT22;18502;43.574;1.276;2024-02-21T06:07:35;2.60;99.90
31979;DHT22;18502;43.574;1.276;2024-02-21T06:10:02;2.60;99.90
31979;DHT22;18502;43.574;1.276;2024-02-21T06:12:28;2.50;99.90
31979;DHT22;18502;43.574;1.276;2024-02-21T06:14:53;2.50;99.90
31979;DHT22;18502;43.574;1.276;2024-02-21T06:17:19;2.50;99.90
31979;DHT22;18502;43.574;1.276;2024-02-21T06:19:45;2.50;99.90
31979;DHT22;18502;43.574;1.276;2024-02-21T06:22:11;2.40;99.90
31979;DHT22;18502;43.574;1.276;2024-02-21T06:24:37;2.40;99.90
31979;DHT22;18502;43.574;1.276;2024-02-21T06:27:04;2.50;99.90
31979;DHT22;18502;43.574;1.276;2024-02-21T06:29:31;2.50;99.90
31979;DHT22;18502;43.574;1.276;2024-02-21T06:31:57;2.50;99.90
31979;DHT22;18502;43.574;1.276;2024-02-21T06:34:23;2.70;99.90
31979;DHT22;18502;43.574;1.276;2024-02-21T06:36:50;2.70;99.90
31979;DHT22;18502;43.574;1.276;2024-02-21T06:39:15;2.80;99.90
31979;DHT22;18502;43.574;1.276;2024-02-21T06:41:41;2.80;99.90
31979;DHT22;18502;43.574;1.276;2024-02-21T06:44:07;2.90;99.90
31979;DHT22;18502;43.574;1.276;2024-02-21T06:46:32;2.90;99.90
31979;DHT22;18502;43.574;1.276;2024-02-21T06:49:01;3.00;99.90
31979;DHT22;18502;43.574;1.276;2024-02-21T06:51:28;3.00;99.90
31979;DHT22;18502;43.574;1.276;2024-02-21T06:53:55;3.10;99.90
31979;DHT22;18502;43.574;1.276;2024-02-21T06:56:22;3.00;99.90
31979;DHT22;18502;43.574;1.276;2024-02-21T06:58:52;3.10;99.90
31979;DHT22;18502;43.574;1.276;2024-02-21T07:01:18;3.10;99.90
31979;DHT22;18502;43.574;1.276;2024-02-21T07:03:43;3.20;99.90
31979;DHT22;18502;43.574;1.276;2024-02-21T07:06:09;3.30;99.90
31979;DHT22;18502;43.574;1.276;2024-02-21T07:08:35;3.50;99.90
31979;DHT22;18502;43.574;1.276;2024-02-21T07:11:00;3.60;99.90
31979;DHT22;18502;43.574;1.276;2024-02-21T07:13:26;3.60;99.90
31979;DHT22;18502;43.574;1.276;2024-02-21T07:15:52;3.60;99.90
31979;DHT22;18502;43.574;1.276;2024-02-21T07:18:17;3.60;99.90
31979;DHT22;18502;43.574;1.276;2024-02-21T07:20:43;3.60;99.90
31979;DHT22;18502;43.574;1.276;2024-02-21T07:23:09;3.50;99.90
31979;DHT22;18502;43.574;1.276;2024-02-21T07:25:34;3.60;99.90
31979;DHT22;18502;43.574;1.276;2024-02-21T07:28:00;3.60;99.90
31979;DHT22;18502;43.574;1.276;2024-02-21T07:30:26;3.70;99.90
31979;DHT22;18502;43.574;1.276;2024-02-21T07:32:51;3.90;99.90
31979;DHT22;18502;43.574;1.276;2024-02-21T07:35:18;4.00;99.90
31979;DHT22;18502;43.574;1.276;2024-02-21T07:37:43;4.10;99.90
31979;DHT22;18502;43.574;1.276;2024-02-21T07:40:15;4.20;99.90
31979;DHT22;18502;43.574;1.276;2024-02-21T07:42:41;4.30;99.90
31979;DHT22;18502;43.574;1.276;2024-02-21T07:45:10;4.40;99.90
31979;DHT22;18502;43.574;1.276;2024-02-21T07:47:36;4.50;99.90
31979;DHT22;18502;43.574;1.276;2024-02-21T07:50:03;4.60;99.90
31979;DHT22;18502;43.574;1.276;2024-02-21T07:52:29;4.70;99.90
31979;DHT22;18502;43.574;1.276;2024-02-21T07:54:55;4.80;99.90
31979;DHT22;18502;43.574;1.276;2024-02-21T07:57:21;4.80;99.90
31979;DHT22;18502;43.574;1.276;2024-02-21T07:59:47;4.70;99.90
31979;DHT22;18502;43.574;1.276;2024-02-21T08:02:16;4.70;99.90
31979;DHT22;18502;43.574;1.276;2024-02-21T08:04:42;4.60;99.90
31979;DHT22;18502;43.574;1.276;2024-02-21T08:07:08;4.70;99.90
31979;DHT22;18502;43.574;1.276;2024-02-21T08:09:34;4.80;99.90
31979;DHT22;18502;43.574;1.276;2024-02-21T08:12:00;4.80;99.90
31979;DHT22;18502;43.574;1.276;2024-02-21T08:14:26;4.70;99.90
31979;DHT22;18502;43.574;1.276;2024-02-21T08:16:52;4.90;99.90
31979;DHT22;18502;43.574;1.276;2024-02-21T08:19:21;4.90;99.90
31979;DHT22;18502;43.574;1.276;2024-02-21T08:21:50;5.00;99.90
31979;DHT22;18502;43.574;1.276;2024-02-21T08:24:16;4.90;99.90
31979;DHT22;18502;43.574;1.276;2024-02-21T08:26:42;4.90;99.90
31979;DHT22;18502;43.574;1.276;2024-02-21T08:29:08;4.90;99.90
31979;DHT22;18502;43.574;1.276;2024-02-21T08:31:33;4.90;99.90
31979;DHT22;18502;43.574;1.276;2024-02-21T08:34:00;4.90;99.90
31979;DHT22;18502;43.574;1.276;2024-02-21T08:36:38;5.00;99.90
31979;DHT22;18502;43.574;1.276;2024-02-21T08:39:04;5.30;99.90
31979;DHT22;18502;43.574;1.276;2024-02-21T08:41:34;5.40;99.90
31979;DHT22;18502;43.574;1.276;2024-02-21T08:44:00;5.60;99.90
31979;DHT22;18502;43.574;1.276;2024-02-21T08:46:26;5.70;99.90
31979;DHT22;18502;43.574;1.276;2024-02-21T08:48:52;5.80;99.90
31979;DHT22;18502;43.574;1.276;2024-02-21T08:51:18;6.00;99.90
31979;DHT22;18502;43.574;1.276;2024-02-21T08:53:48;6.10;99.90
31979;DHT22;18502;43.574;1.276;2024-02-21T08:56:13;6.30;99.90
31979;DHT22;18502;43.574;1.276;2024-02-21T08:58:39;6.70;99.90
31979;DHT22;18502;43.574;1.276;2024-02-21T09:01:06;6.90;99.90
31979;DHT22;18502;43.574;1.276;2024-02-21T09:03:38;6.90;99.90
31979;DHT22;18502;43.574;1.276;2024-02-21T09:06:05;6.90;99.90
31979;DHT22;18502;43.574;1.276;2024-02-21T09:08:31;6.90;99.90
31979;DHT22;18502;43.574;1.276;2024-02-21T09:10:57;7.10;99.90
31979;DHT22;18502;43.574;1.276;2024-02-21T09:13:23;7.60;99.90
31979;DHT22;18502;43.574;1.276;2024-02-21T09:15:49;8.20;99.90
31979;DHT22;18502;43.574;1.276;2024-02-21T09:18:15;8.70;99.90
31979;DHT22;18502;43.574;1.276;2024-02-21T09:20:45;10.00;99.90
31979;DHT22;18502;43.574;1.276;2024-02-21T09:23:11;11.70;99.90
31979;DHT22;18502;43.574;1.276;2024-02-21T09:25:37;12.70;99.90
31979;DHT22;18502;43.574;1.276;2024-02-21T09:28:03;11.80;99.90
31979;DHT22;18502;43.574;1.276;2024-02-21T09:30:29;10.80;99.90
31979;DHT22;18502;43.574;1.276;2024-02-21T09:32:55;9.50;99.90
31979;DHT22;18502;43.574;1.276;2024-02-21T09:35:24;10.10;99.90
31979;DHT22;18502;43.574;1.276;2024-02-21T09:37:52;11.00;99.90
31979;DHT22;18502;43.574;1.276;2024-02-21T09:40:17;11.30;99.90
31979;DHT22;18502;43.574;1.276;2024-02-21T09:42:44;11.70;99.90
31979;DHT22;18502;43.574;1.276;2024-02-21T09:45:21;12.00;99.90
31979;DHT22;18502;43.574;1.276;2024-02-21T09:50:34;13.00;99.90
31979;DHT22;18502;43.574;1.276;2024-02-21T09:53:02;12.60;99.90
31979;DHT22;18502;43.574;1.276;2024-02-21T09:55:31;12.00;99.90
31979;DHT22;18502;43.574;1.276;2024-02-21T09:58:01;11.50;99.90
31979;DHT22;18502;43.574;1.276;2024-02-21T10:00:27;11.80;99.90
31979;DHT22;18502;43.574;1.276;2024-02-21T10:02:53;12.50;99.90
31979;DHT22;18502;43.574;1.276;2024-02-21T10:05:19;13.30;99.90
31979;DHT22;18502;43.574;1.276;2024-02-21T10:07:45;13.80;99.90
31979;DHT22;18502;43.574;1.276;2024-02-21T10:10:11;14.60;99.90
31979;DHT22;18502;43.574;1.276;2024-02-21T10:12:36;14.60;99.90
31979;DHT22;18502;43.574;1.276;2024-02-21T10:15:03;14.10;99.90
31979;DHT22;18502;43.574;1.276;2024-02-21T10:17:29;14.00;99.90
31979;DHT22;18502;43.574;1.276;2024-02-21T10:19:55;15.10;99.90
31979;DHT22;18502;43.574;1.276;2024-02-21T10:22:21;17.90;99.90
31979;DHT22;18502;43.574;1.276;2024-02-21T10:24:47;19.40;99.90
31979;DHT22;18502;43.574;1.276;2024-02-21T10:27:12;18.40;99.90
31979;DHT22;18502;43.574;1.276;2024-02-21T10:29:39;17.60;99.90
31979;DHT22;18502;43.574;1.276;2024-02-21T10:34:35;14.40;99.90
31979;DHT22;18502;43.574;1.276;2024-02-21T10:37:05;13.90;99.90
31979;DHT22;18502;43.574;1.276;2024-02-21T10:39:35;13.60;99.90
31979;DHT22;18502;43.574;1.276;2024-02-21T10:42:02;13.10;99.90
31979;DHT22;18502;43.574;1.276;2024-02-21T10:44:32;13.40;99.90
31979;DHT22;18502;43.574;1.276;2024-02-21T10:46:58;13.10;99.90
31979;DHT22;18502;43.574;1.276;2024-02-21T10:49:26;12.70;99.90
31979;DHT22;18502;43.574;1.276;2024-02-21T10:55:19;12.60;99.90
31979;DHT22;18502;43.574;1.276;2024-02-21T10:57:46;12.90;99.90
31979;DHT22;18502;43.574;1.276;2024-02-21T11:00:15;13.00;99.90
31979;DHT22;18502;43.574;1.276;2024-02-21T11:02:42;13.10;99.90
31979;DHT22;18502;43.574;1.276;2024-02-21T11:05:08;13.50;99.90
31979;DHT22;18502;43.574;1.276;2024-02-21T11:07:37;14.00;99.90
31979;DHT22;18502;43.574;1.276;2024-02-21T11:10:04;13.80;99.90
31979;DHT22;18502;43.574;1.276;2024-02-21T11:12:33;13.80;99.90
31979;DHT22;18502;43.574;1.276;2024-02-21T11:15:05;13.40;99.90
31979;DHT22;18502;43.574;1.276;2024-02-21T11:17:31;13.40;99.90
31979;DHT22;18502;43.574;1.276;2024-02-21T11:19:57;13.50;99.90
31979;DHT22;18502;43.574;1.276;2024-02-21T11:22:24;13.30;99.90
31979;DHT22;18502;43.574;1.276;2024-02-21T11:24:54;13.60;99.90
31979;DHT22;18502;43.574;1.276;2024-02-21T11:27:22;14.10;99.90
31979;DHT22;18502;43.574;1.276;2024-02-21T11:29:57;14.20;99.90
31979;DHT22;18502;43.574;1.276;2024-02-21T11:32:25;14.20;99.90
31979;DHT22;18502;43.574;1.276;2024-02-21T11:37:19;15.10;99.90
31979;DHT22;18502;43.574;1.276;2024-02-21T11:39:45;15.40;99.90
31979;DHT22;18502;43.574;1.276;2024-02-21T11:42:11;16.40;99.90
31979;DHT22;18502;43.574;1.276;2024-02-21T11:44:38;17.60;99.90
31979;DHT22;18502;43.574;1.276;2024-02-21T11:47:05;16.60;99.90
31979;DHT22;18502;43.574;1.276;2024-02-21T11:49:36;17.30;99.90
31979;DHT22;18502;43.574;1.276;2024-02-21T11:52:03;16.90;99.90
31979;DHT22;18502;43.574;1.276;2024-02-21T11:54:30;17.10;99.90
31979;DHT22;18502;43.574;1.276;2024-02-21T11:56:56;17.70;99.90
31979;DHT22;18502;43.574;1.276;2024-02-21T11:59:21;17.70;99.90
31979;DHT22;18502;43.574;1.276;2024-02-21T12:01:48;17.30;99.90
31979;DHT22;18502;43.574;1.276;2024-02-21T12:04:15;16.90;99.90
31979;DHT22;18502;43.574;1.276;2024-02-21T12:06:43;17.20;99.90
31979;DHT22;18502;43.574;1.276;2024-02-21T12:09:09;17.30;99.90
31979;DHT22;18502;43.574;1.276;2024-02-21T12:11:35;17.20;99.90
31979;DHT22;18502;43.574;1.276;2024-02-21T12:14:02;17.00;99.90
31979;DHT22;18502;43.574;1.276;2024-02-21T12:16:29;16.50;99.90
31979;DHT22;18502;43.574;1.276;2024-02-21T12:18:59;16.60;99.90
31979;DHT22;18502;43.574;1.276;2024-02-21T12:21:32;16.70;99.90
31979;DHT22;18502;43.574;1.276;2024-02-21T12:24:14;16.50;99.90
31979;DHT22;18502;43.574;1.276;2024-02-21T12:26:40;16.60;99.90
31979;DHT22;18502;43.574;1.276;2024-02-21T12:29:07;16.60;99.90
31979;DHT22;18502;43.574;1.276;2024-02-21T12:31:35;17.00;99.90
31979;DHT22;18502;43.574;1.276;2024-02-21T12:34:02;17.00;99.90
31979;DHT22;18502;43.574;1.276;2024-02-21T12:36:27;17.10;99.90
31979;DHT22;18502;43.574;1.276;2024-02-21T12:38:53;17.40;99.90
31979;DHT22;18502;43.574;1.276;2024-02-21T12:41:19;17.20;99.90
31979;DHT22;18502;43.574;1.276;2024-02-21T12:43:44;17.10;99.90
31979;DHT22;18502;43.574;1.276;2024-02-21T12:46:10;17.20;99.90
31979;DHT22;18502;43.574;1.276;2024-02-21T12:48:35;17.10;99.90
31979;DHT22;18502;43.574;1.276;2024-02-21T12:51:01;17.20;99.90
31979;DHT22;18502;43.574;1.276;2024-02-21T12:53:27;17.30;99.90
31979;DHT22;18502;43.574;1.276;2024-02-21T12:55:52;17.00;99.90
31979;DHT22;18502;43.574;1.276;2024-02-21T12:58:18;17.00;99.90
31979;DHT22;18502;43.574;1.276;2024-02-21T13:00:44;17.10;99.90
31979;DHT22;18502;43.574;1.276;2024-02-21T13:03:10;17.30;99.90
31979;DHT22;18502;43.574;1.276;2024-02-21T13:05:38;17.40;99.90
31979;DHT22;18502;43.574;1.276;2024-02-21T13:08:08;17.80;99.90
31979;DHT22;18502;43.574;1.276;2024-02-21T13:10:34;17.60;99.90
31979;DHT22;18502;43.574;1.276;2024-02-21T13:13:01;17.20;99.90
31979;DHT22;18502;43.574;1.276;2024-02-21T13:15:27;17.80;99.90
31979;DHT22;18502;43.574;1.276;2024-02-21T13:17:54;18.20;99.90
31979;DHT22;18502;43.574;1.276;2024-02-21T13:20:20;18.20;99.90
31979;DHT22;18502;43.574;1.276;2024-02-21T13:22:46;17.70;99.90
31979;DHT22;18502;43.574;1.276;2024-02-21T13:25:12;18.00;99.90
31979;DHT22;18502;43.574;1.276;2024-02-21T13:27:41;18.20;99.90
31979;DHT22;18502;43.574;1.276;2024-02-21T13:30:07;18.80;99.90
31979;DHT22;18502;43.574;1.276;2024-02-21T13:32:34;19.40;99.90
31979;DHT22;18502;43.574;1.276;2024-02-21T13:35:00;19.10;99.90
31979;DHT22;18502;43.574;1.276;2024-02-21T13:37:27;19.50;99.90
31979;DHT22;18502;43.574;1.276;2024-02-21T13:39:52;19.50;99.90
31979;DHT22;18502;43.574;1.276;2024-02-21T13:42:19;20.00;99.90
31979;DHT22;18502;43.574;1.276;2024-02-21T13:44:45;19.50;99.90
31979;DHT22;18502;43.574;1.276;2024-02-21T13:47:12;19.40;99.90
31979;DHT22;18502;43.574;1.276;2024-02-21T13:49:38;19.00;99.90
31979;DHT22;18502;43.574;1.276;2024-02-21T13:52:05;19.10;99.90
31979;DHT22;18502;43.574;1.276;2024-02-21T13:54:30;19.20;99.90
31979;DHT22;18502;43.574;1.276;2024-02-21T13:56:56;19.30;99.90
31979;DHT22;18502;43.574;1.276;2024-02-21T13:59:21;18.90;99.90
31979;DHT22;18502;43.574;1.276;2024-02-21T14:01:47;18.70;99.90
31979;DHT22;18502;43.574;1.276;2024-02-21T14:04:13;18.90;99.90
31979;DHT22;18502;43.574;1.276;2024-02-21T14:06:39;18.80;99.90
31979;DHT22;18502;43.574;1.276;2024-02-21T14:09:09;18.50;99.90
31979;DHT22;18502;43.574;1.276;2024-02-21T14:11:35;18.60;99.90
31979;DHT22;18502;43.574;1.276;2024-02-21T14:14:01;18.60;99.90
31979;DHT22;18502;43.574;1.276;2024-02-21T14:16:27;18.60;99.90
31979;DHT22;18502;43.574;1.276;2024-02-21T14:18:52;18.80;99.90
31979;DHT22;18502;43.574;1.276;2024-02-21T14:21:19;18.90;99.90
31979;DHT22;18502;43.574;1.276;2024-02-21T14:23:45;18.50;99.90
31979;DHT22;18502;43.574;1.276;2024-02-21T14:26:11;18.70;99.90
31979;DHT22;18502;43.574;1.276;2024-02-21T14:28:37;18.70;99.90
31979;DHT22;18502;43.574;1.276;2024-02-21T14:31:03;19.00;99.90
31979;DHT22;18502;43.574;1.276;2024-02-21T14:33:31;18.80;99.90
31979;DHT22;18502;43.574;1.276;2024-02-21T14:35:57;18.30;99.90
31979;DHT22;18502;43.574;1.276;2024-02-21T14:38:23;18.10;99.90
31979;DHT22;18502;43.574;1.276;2024-02-21T14:40:48;18.40;99.90
31979;DHT22;18502;43.574;1.276;2024-02-21T14:43:14;18.00;99.90
31979;DHT22;18502;43.574;1.276;2024-02-21T14:45:39;17.90;99.90
31979;DHT22;18502;43.574;1.276;2024-02-21T14:48:06;17.90;99.90
31979;DHT22;18502;43.574;1.276;2024-02-21T14:50:33;18.00;99.90
31979;DHT22;18502;43.574;1.276;2024-02-21T14:52:59;18.20;99.90
31979;DHT22;18502;43.574;1.276;2024-02-21T14:55:24;18.10;99.90
31979;DHT22;18502;43.574;1.276;2024-02-21T14:57:50;18.40;99.90
31979;DHT22;18502;43.574;1.276;2024-02-21T15:00:16;18.20;99.90
31979;DHT22;18502;43.574;1.276;2024-02-21T15:02:42;18.40;99.90
31979;DHT22;18502;43.574;1.276;2024-02-21T15:05:09;19.10;99.90
31979;DHT22;18502;43.574;1.276;2024-02-21T15:07:34;18.90;99.90
31979;DHT22;18502;43.574;1.276;2024-02-21T15:10:00;19.00;99.90
31979;DHT22;18502;43.574;1.276;2024-02-21T15:12:26;18.60;99.90
31979;DHT22;18502;43.574;1.276;2024-02-21T15:14:52;18.60;99.90
31979;DHT22;18502;43.574;1.276;2024-02-21T15:17:17;18.90;99.90
31979;DHT22;18502;43.574;1.276;2024-02-21T15:19:46;18.80;99.90
31979;DHT22;18502;43.574;1.276;2024-02-21T15:22:13;18.50;99.90
31979;DHT22;18502;43.574;1.276;2024-02-21T15:24:41;18.10;99.90
31979;DHT22;18502;43.574;1.276;2024-02-21T15:27:07;18.00;99.90
31979;DHT22;18502;43.574;1.276;2024-02-21T15:29:36;17.70;99.90
31979;DHT22;18502;43.574;1.276;2024-02-21T15:32:02;17.50;99.90
31979;DHT22;18502;43.574;1.276;2024-02-21T15:34:28;17.10;99.90
31979;DHT22;18502;43.574;1.276;2024-02-21T15:36:54;17.00;99.90
31979;DHT22;18502;43.574;1.276;2024-02-21T15:39:19;17.00;99.90
31979;DHT22;18502;43.574;1.276;2024-02-21T15:41:45;16.80;99.90
31979;DHT22;18502;43.574;1.276;2024-02-21T15:44:11;16.70;99.90
31979;DHT22;18502;43.574;1.276;2024-02-21T15:46:36;16.60;99.90